createdAt,value
2018-11-03T00:02:05.906Z,101066.86
2018-11-03T00:04:34.379Z,101061.44
2018-11-03T00:07:03.156Z,101066.47
2018-11-03T00:09:31.673Z,101060.55
2018-11-03T00:12:01.162Z,101057.75
2018-11-03T00:14:29.643Z,101051.34
2018-11-03T00:16:58.042Z,101043.27
2018-11-03T00:19:26.414Z,101053.08
2018-11-03T00:21:54.812Z,101054.21
2018-11-03T00:24:23.241Z,101055.64
2018-11-03T00:26:51.678Z,101048.08
2018-11-03T00:29:20.026Z,101052.66
2018-11-03T00:31:48.444Z,101048.99
2018-11-03T00:34:16.885Z,101045.21
2018-11-03T00:36:45.786Z,101048.93
2018-11-03T00:39:14.230Z,101050.20
2018-11-03T00:41:42.620Z,101048.31
2018-11-03T00:44:11.026Z,101049.92
2018-11-03T00:46:39.437Z,101056.14
2018-11-03T00:49:07.822Z,101058.20
2018-11-03T00:51:39.591Z,101058.36
2018-11-03T00:54:07.989Z,101047.69
2018-11-03T00:56:36.363Z,101050.09
2018-11-03T00:59:04.906Z,101045.97
2018-11-03T01:01:33.399Z,101048.73
2018-11-03T01:04:02.824Z,101041.97
2018-11-03T01:06:31.238Z,101034.60
2018-11-03T01:08:59.684Z,101027.23
2018-11-03T01:11:28.167Z,101038.19
2018-11-03T01:13:56.627Z,101038.34
2018-11-03T01:16:25.073Z,101045.38
2018-11-03T01:18:53.487Z,101035.88
2018-11-03T01:21:22.011Z,101037.67
2018-11-03T01:23:50.496Z,101039.80
2018-11-03T01:26:18.959Z,101045.05
2018-11-03T01:28:47.404Z,101037.67
2018-11-03T01:31:15.828Z,101039.44
2018-11-03T01:33:44.281Z,101041.59
2018-11-03T01:36:12.758Z,101037.30
2018-11-03T01:38:41.189Z,101038.98
2018-11-03T01:46:10.936Z,101033.08
2018-11-03T01:48:39.472Z,101030.23
2018-11-03T01:51:07.933Z,101031.05
2018-11-03T01:53:36.408Z,101031.42
2018-11-03T01:56:05.319Z,101032.59
2018-11-03T01:58:33.758Z,101036.37
2018-11-03T02:01:02.175Z,101036.86
2018-11-03T02:03:30.604Z,101030.64
2018-11-03T02:05:59.097Z,101028.51
2018-11-03T02:08:28.076Z,101024.92
2018-11-03T02:10:56.606Z,101026.72
2018-11-03T02:13:25.062Z,101025.73
2018-11-03T02:15:53.435Z,101018.38
2018-11-03T02:18:21.830Z,101023.61
2018-11-03T02:20:50.340Z,101018.38
2018-11-03T02:23:18.732Z,101011.34
2018-11-03T02:25:47.255Z,101018.52
2018-11-03T02:28:15.652Z,101020.80
2018-11-03T02:30:44.085Z,101009.98
2018-11-03T02:33:12.583Z,101011.78
2018-11-03T02:35:44.487Z,101009.28
2018-11-03T02:38:12.978Z,101020.58
2018-11-03T02:40:41.409Z,101025.00
2018-11-03T02:43:10.016Z,101025.62
2018-11-03T02:45:38.447Z,101024.47
2018-11-03T02:48:06.944Z,101022.83
2018-11-03T02:50:35.401Z,101021.66
2018-11-03T02:53:04.479Z,101013.44
2018-11-03T02:55:32.978Z,101009.17
2018-11-03T02:58:01.807Z,101006.06
2018-11-03T03:00:30.228Z,100994.77
2018-11-03T03:02:58.720Z,100993.45
2018-11-03T03:05:27.440Z,100996.23
2018-11-03T03:07:55.857Z,100996.37
2018-11-03T03:10:24.292Z,100999.59
2018-11-03T03:12:52.721Z,100997.61
2018-11-03T03:15:21.786Z,100997.28
2018-11-03T03:17:50.253Z,101005.77
2018-11-03T03:20:18.693Z,101005.43
2018-11-03T03:22:47.139Z,101006.37
2018-11-03T03:25:15.624Z,101010.30
2018-11-03T03:27:44.113Z,101008.31
2018-11-03T03:30:12.610Z,101017.14
2018-11-03T03:32:41.083Z,101015.00
2018-11-03T03:35:09.524Z,101015.48
2018-11-03T03:37:38.320Z,101014.33
2018-11-03T03:40:07.816Z,101018.38
2018-11-03T03:42:36.310Z,101014.59
2018-11-03T03:45:06.282Z,101016.05
2018-11-03T03:47:34.922Z,101020.12
2018-11-03T03:50:03.416Z,101027.63
2018-11-03T03:52:31.879Z,101033.47
2018-11-03T03:55:00.297Z,101030.52
2018-11-03T03:57:28.728Z,101039.67
2018-11-03T03:59:57.195Z,101038.52
2018-11-03T04:05:32.762Z,101042.98
2018-11-03T04:08:01.556Z,101042.31
2018-11-03T04:10:29.963Z,101040.63
2018-11-03T04:12:58.449Z,101039.33
2018-11-03T04:15:27.169Z,101039.47
2018-11-03T04:17:55.622Z,101035.06
2018-11-03T04:20:24.160Z,101034.09
2018-11-03T04:22:52.644Z,101031.02
2018-11-03T04:25:22.029Z,101035.28
2018-11-03T04:27:50.438Z,101041.00
2018-11-03T04:30:18.992Z,101041.34
2018-11-03T04:32:47.481Z,101035.62
2018-11-03T04:35:15.933Z,101032.52
2018-11-03T04:37:44.451Z,101032.52
2018-11-03T04:40:13.031Z,101034.17
2018-11-03T04:42:41.857Z,101026.80
2018-11-03T04:45:11.273Z,101023.70
2018-11-03T04:47:39.782Z,101026.66
2018-11-03T04:50:09.268Z,101028.79
2018-11-03T04:52:37.925Z,101027.48
2018-11-03T04:55:07.295Z,101021.28
2018-11-03T04:57:35.668Z,101018.66
2018-11-03T05:00:04.811Z,101021.28
2018-11-03T05:02:33.209Z,101017.34
2018-11-03T05:05:02.075Z,101017.02
2018-11-03T05:07:30.691Z,101015.36
2018-11-03T05:09:59.201Z,101010.61
2018-11-03T05:12:27.633Z,101012.41
2018-11-03T05:14:56.080Z,101012.41
2018-11-03T05:17:24.644Z,101013.86
2018-11-03T05:19:53.332Z,101012.89
2018-11-03T05:22:21.867Z,101017.64
2018-11-03T05:24:50.293Z,101017.16
2018-11-03T05:27:18.779Z,101016.33
2018-11-03T05:29:47.220Z,101018.47
2018-11-03T05:32:15.746Z,101018.27
2018-11-03T05:34:44.226Z,101012.55
2018-11-03T05:37:12.807Z,101016.97
2018-11-03T05:39:41.268Z,101022.69
2018-11-03T05:42:09.734Z,101013.64
2018-11-03T05:44:38.246Z,101020.55
2018-11-03T05:47:07.008Z,101015.92
2018-11-03T05:49:35.423Z,101025.56
2018-11-03T05:52:03.957Z,101027.36
2018-11-03T05:54:32.516Z,101021.30
2018-11-03T05:57:00.963Z,101024.25
2018-11-03T05:59:29.426Z,101026.53
2018-11-03T06:01:58.007Z,101021.78
2018-11-03T06:04:26.515Z,101015.73
2018-11-03T06:06:55.009Z,101016.55
2018-11-03T06:09:24.464Z,101021.92
2018-11-03T06:11:53.167Z,101023.23
2018-11-03T06:14:21.828Z,101028.12
2018-11-03T06:16:50.312Z,101031.00
2018-11-03T06:19:18.890Z,101034.93
2018-11-03T06:21:47.468Z,101038.86
2018-11-03T06:24:16.004Z,101034.59
2018-11-03T06:26:44.652Z,101033.77
2018-11-03T06:29:13.228Z,101040.31
2018-11-03T06:31:41.733Z,101038.66
2018-11-03T06:34:10.215Z,101041.77
2018-11-03T06:36:38.795Z,101042.25
2018-11-03T06:39:08.256Z,101036.53
2018-11-03T06:41:36.673Z,101042.59
2018-11-03T06:44:05.223Z,101045.55
2018-11-03T06:46:33.805Z,101043.27
2018-11-03T06:49:33.854Z,101038.86
2018-11-03T06:52:02.391Z,101039.20
2018-11-03T06:54:30.848Z,101038.59
2018-11-03T06:56:59.356Z,101045.48
2018-11-03T06:59:27.964Z,101048.92
2018-11-03T07:01:56.458Z,101041.89
2018-11-03T07:04:25.225Z,101044.51
2018-11-03T07:06:53.794Z,101047.13
2018-11-03T07:09:23.342Z,101054.16
2018-11-03T07:11:52.033Z,101044.51
2018-11-03T07:14:20.638Z,101045.33
2018-11-03T07:16:49.643Z,101056.97
2018-11-03T07:19:18.109Z,101047.32
2018-11-03T07:21:46.690Z,101059.44
2018-11-03T07:24:15.090Z,101057.19
2018-11-03T07:26:43.617Z,101054.42
2018-11-03T07:29:12.093Z,101053.80
2018-11-03T07:31:40.574Z,101057.47
2018-11-03T07:34:09.266Z,101055.53
2018-11-03T07:36:37.753Z,101057.85
2018-11-03T07:39:08.034Z,101054.64
2018-11-03T07:41:36.671Z,101059.44
2018-11-03T07:44:06.821Z,101062.61
2018-11-03T07:46:35.267Z,101065.42
2018-11-03T07:49:03.969Z,101073.36
2018-11-03T07:51:32.335Z,101068.16
2018-11-03T07:54:01.211Z,101069.21
2018-11-03T07:56:29.820Z,101063.41
2018-11-03T07:58:58.366Z,101061.33
2018-11-03T08:01:26.948Z,101065.33
2018-11-03T08:03:55.507Z,101070.61
2018-11-03T08:06:24.240Z,101065.44
2018-11-03T08:08:52.871Z,101058.48
2018-11-03T08:11:21.335Z,101054.59
2018-11-03T08:13:49.960Z,101047.13
2018-11-03T08:16:18.963Z,101054.58
2018-11-03T08:18:47.459Z,101052.96
2018-11-03T08:21:16.043Z,101052.06
2018-11-03T08:23:44.837Z,101053.31
2018-11-03T08:26:13.414Z,101052.73
2018-11-03T08:28:42.100Z,101050.15
2018-11-03T08:31:10.874Z,101059.91
2018-11-03T08:33:39.436Z,101062.44
2018-11-03T08:36:08.273Z,101065.46
2018-11-03T08:38:37.379Z,101072.75
2018-11-03T08:41:07.153Z,101070.64
2018-11-03T08:43:36.443Z,101068.27
2018-11-03T08:46:06.321Z,101073.90
2018-11-03T08:48:34.868Z,101075.27
2018-11-03T08:51:03.249Z,101070.54
2018-11-03T08:53:31.756Z,101073.71
2018-11-03T08:56:00.171Z,101072.91
2018-11-03T08:58:28.789Z,101069.03
2018-11-03T09:00:57.874Z,101069.09
2018-11-03T09:03:26.817Z,101064.69
2018-11-03T09:05:55.315Z,101063.42
2018-11-03T09:08:23.819Z,101062.62
2018-11-03T09:10:52.306Z,101055.29
2018-11-03T09:13:20.848Z,101050.91
2018-11-03T09:15:49.751Z,101044.53
2018-11-03T09:18:18.721Z,101046.22
2018-11-03T09:20:47.176Z,101044.80
2018-11-03T09:23:15.645Z,101041.54
2018-11-03T09:25:44.618Z,101038.31
2018-11-03T09:28:13.232Z,101033.92
2018-11-03T09:30:41.757Z,101035.77
2018-11-03T09:33:10.309Z,101039.56
2018-11-03T09:35:39.193Z,101042.56
2018-11-03T09:38:07.745Z,101049.38
2018-11-03T09:40:36.220Z,101044.82
2018-11-03T09:43:05.419Z,101034.19
2018-11-03T09:45:33.891Z,101028.94
2018-11-03T09:48:02.640Z,101022.25
2018-11-03T09:50:31.103Z,101028.52
2018-11-03T09:52:59.588Z,101020.64
2018-11-03T09:55:28.024Z,101022.81
2018-11-03T09:57:56.658Z,101023.67
2018-11-03T10:00:25.453Z,101017.92
2018-11-03T10:02:53.934Z,101011.88
2018-11-03T10:05:22.438Z,101012.06
2018-11-03T10:07:50.957Z,101016.86
2018-11-03T10:10:19.833Z,101013.57
2018-11-03T10:12:49.670Z,101021.66
2018-11-03T10:15:18.732Z,101014.12
2018-11-03T10:17:47.344Z,101012.83
2018-11-03T10:20:16.480Z,101019.72
2018-11-03T10:22:45.007Z,101008.41
2018-11-03T10:25:16.624Z,101004.48
2018-11-03T10:27:45.457Z,100995.77
2018-11-03T10:30:15.296Z,100998.91
2018-11-03T10:32:44.469Z,100988.38
2018-11-03T10:35:13.958Z,100990.03
2018-11-03T10:37:42.767Z,100975.73
2018-11-03T10:40:16.114Z,100978.57
2018-11-03T10:42:45.079Z,100973.65
2018-11-03T10:45:14.750Z,100970.36
2018-11-03T10:47:43.549Z,100964.77
2018-11-03T10:50:15.577Z,100966.58
2018-11-03T10:52:45.362Z,100967.06
2018-11-03T10:55:15.162Z,100966.72
2018-11-03T10:57:43.924Z,100957.16
2018-11-03T11:00:21.917Z,100954.02
2018-11-03T11:02:55.881Z,100950.71
2018-11-03T11:05:30.124Z,100950.02
2018-11-03T11:08:04.301Z,100938.48
2018-11-03T11:10:38.525Z,100932.50
2018-11-03T11:13:12.723Z,100925.05
2018-11-03T11:15:41.460Z,100922.72
2018-11-03T11:18:10.401Z,100916.25
2018-11-03T11:20:38.855Z,100907.60
2018-11-03T11:23:08.362Z,100905.38
2018-11-03T11:25:36.738Z,100907.08
2018-11-03T11:28:05.973Z,100896.25
2018-11-03T11:30:36.117Z,100892.01
2018-11-03T11:33:07.348Z,100886.52
2018-11-03T11:35:35.874Z,100883.30
2018-11-03T11:38:04.998Z,100877.98
2018-11-03T11:40:33.904Z,100872.48
2018-11-03T11:43:03.314Z,100873.42
2018-11-03T11:45:31.858Z,100860.50
2018-11-03T11:48:00.461Z,100865.27
2018-11-03T11:50:28.963Z,100854.20
2018-11-03T11:52:57.472Z,100853.87
2018-11-03T11:55:26.637Z,100847.67
2018-11-03T11:57:55.074Z,100846.25
2018-11-03T12:00:27.873Z,100839.63
2018-11-03T12:02:56.596Z,100833.52
2018-11-03T12:05:25.843Z,100828.05
2018-11-03T12:07:54.562Z,100829.59
2018-11-03T12:10:23.297Z,100825.08
2018-11-03T12:12:51.830Z,100816.28
2018-11-03T12:15:20.314Z,100813.52
2018-11-03T12:17:48.823Z,100812.93
2018-11-03T12:20:17.384Z,100812.61
2018-11-03T12:22:45.837Z,100811.12
2018-11-03T12:25:14.310Z,100801.31
2018-11-03T12:27:42.799Z,100797.47
2018-11-03T12:30:13.781Z,100793.66
2018-11-03T12:32:42.309Z,100788.36
2018-11-03T12:35:10.998Z,100779.80
2018-11-03T12:37:39.855Z,100778.17
2018-11-03T12:40:13.160Z,100775.34
2018-11-03T12:42:41.749Z,100772.83
2018-11-03T12:45:11.339Z,100772.77
2018-11-03T12:47:40.227Z,100762.84
2018-11-03T12:50:11.378Z,100753.92
2018-11-03T12:52:39.845Z,100747.30
2018-11-03T12:55:09.587Z,100746.79
2018-11-03T12:57:38.642Z,100737.89
2018-11-03T13:00:11.278Z,100731.86
2018-11-03T13:02:40.684Z,100726.31
2018-11-03T13:05:09.524Z,100724.61
2018-11-03T13:07:39.401Z,100723.11
2018-11-03T13:10:09.279Z,100721.30
2018-11-03T13:12:38.358Z,100720.53
2018-11-03T13:15:08.402Z,100722.15
2018-11-03T13:17:37.121Z,100717.85
2018-11-03T13:20:07.481Z,100714.61
2018-11-03T13:22:36.064Z,100711.84
2018-11-03T13:25:05.253Z,100706.36
2018-11-03T13:27:33.757Z,100706.52
2018-11-03T13:30:02.990Z,100697.58
2018-11-03T13:32:31.516Z,100698.08
2018-11-03T13:34:59.990Z,100696.73
2018-11-03T13:37:29.415Z,100690.08
2018-11-03T13:39:57.956Z,100689.36
2018-11-03T13:42:26.411Z,100679.98
2018-11-03T13:44:54.935Z,100689.89
2018-11-03T13:47:23.442Z,100687.40
2018-11-03T13:49:51.890Z,100686.45
2018-11-03T13:52:20.585Z,100685.14
2018-11-03T13:54:49.018Z,100684.23
2018-11-03T13:57:17.489Z,100677.69
2018-11-03T13:59:45.918Z,100687.44
2018-11-03T14:02:14.435Z,100686.66
2018-11-03T14:04:43.097Z,100677.37
2018-11-03T14:07:11.575Z,100681.64
2018-11-03T14:09:40.047Z,100684.30
2018-11-03T14:12:08.504Z,100684.44
2018-11-03T14:14:37.085Z,100677.23
2018-11-03T15:46:58.320Z,100661.73
2018-11-03T15:49:26.182Z,100663.13
2018-11-03T15:56:30.770Z,100657.96
2018-11-03T15:59:02.617Z,100649.98
2018-11-03T16:01:31.624Z,100653.27
2018-11-03T16:04:00.862Z,100650.64
2018-11-03T16:06:29.645Z,100650.83
2018-11-03T16:08:59.814Z,100653.02
2018-11-03T16:11:29.714Z,100651.14
2018-11-03T16:13:58.437Z,100652.88
2018-11-03T16:16:36.981Z,100647.23
2018-11-03T16:19:15.853Z,100646.73
2018-11-03T16:21:43.919Z,100651.06
2018-11-03T16:24:11.767Z,100642.20
2018-11-03T16:26:39.963Z,100641.07
2018-11-03T16:29:07.975Z,100644.59
2018-11-03T16:31:36.035Z,100649.42
2018-11-03T16:34:04.386Z,100645.03
2018-11-03T16:36:32.492Z,100643.45
2018-11-03T16:39:00.403Z,100644.52
2018-11-03T16:41:29.435Z,100649.38
2018-11-03T16:46:37.271Z,100648.38
2018-11-03T16:49:05.385Z,100647.17
2018-11-03T16:51:34.036Z,100650.01
2018-11-03T16:54:02.401Z,100656.98
2018-11-03T16:56:30.349Z,100658.88
2018-11-03T16:59:08.026Z,100655.47
2018-11-03T17:01:35.884Z,100655.20
2018-11-03T17:04:04.300Z,100650.30
2018-11-03T17:06:32.175Z,100651.48
2018-11-03T17:09:00.093Z,100652.88
2018-11-03T17:11:41.551Z,100647.63
2018-11-03T17:14:10.534Z,100648.66
2018-11-03T17:16:38.895Z,100648.73
2018-11-03T17:19:06.811Z,100656.88
2018-11-03T17:21:34.812Z,100644.72
2018-11-03T17:24:02.728Z,100640.64
2018-11-03T17:27:33.287Z,100647.28
2018-11-03T17:30:02.091Z,100643.52
2018-11-03T17:32:30.853Z,100649.48
2018-11-03T17:34:59.350Z,100642.73
2018-11-03T17:37:29.287Z,100638.97
2018-11-03T17:39:58.854Z,100640.98
2018-11-03T17:42:42.078Z,100638.19
2018-11-03T17:45:13.712Z,100639.58
2018-11-03T17:47:42.383Z,100634.64
2018-11-03T17:50:12.301Z,100632.89
2018-11-03T17:52:40.892Z,100634.72
2018-11-03T17:55:09.863Z,100636.03
2018-11-03T17:57:38.265Z,100633.08
2018-11-03T18:00:15.359Z,100638.02
2018-11-03T18:02:44.727Z,100630.83
2018-11-03T18:05:13.951Z,100632.40
2018-11-03T18:07:42.636Z,100635.06
2018-11-03T18:10:40.798Z,100635.95
2018-11-03T18:18:16.382Z,100638.23
2018-11-03T18:24:24.013Z,100637.13
2018-11-03T18:26:52.566Z,100633.68
2018-11-03T18:29:21.088Z,100633.68
2018-11-03T18:31:49.524Z,100629.72
2018-11-03T18:34:18.407Z,100621.31
2018-11-03T18:36:46.950Z,100621.31
2018-11-03T18:39:15.366Z,100616.03
2018-11-03T18:41:43.811Z,100613.40
2018-11-03T18:44:12.659Z,100610.13
2018-11-03T18:46:41.291Z,100614.78
2018-11-03T18:49:09.633Z,100610.66
2018-11-03T18:51:38.310Z,100609.53
2018-11-03T18:54:06.763Z,100608.40
2018-11-03T18:56:35.339Z,100609.09
2018-11-03T18:59:04.285Z,100611.06
2018-11-03T19:01:32.705Z,100604.50
2018-11-03T19:04:01.479Z,100607.80
2018-11-03T19:06:29.891Z,100607.03
2018-11-03T19:08:59.518Z,100603.42
2018-11-03T19:11:27.973Z,100602.98
2018-11-03T19:13:56.798Z,100604.00
2018-11-03T19:16:25.344Z,100604.88
2018-11-03T19:18:53.924Z,100598.62
2018-11-03T19:21:22.338Z,100596.02
2018-11-03T19:23:50.946Z,100601.47
2018-11-03T19:26:19.421Z,100604.29
2018-11-03T19:28:48.592Z,100593.43
2018-11-03T19:31:17.697Z,100594.94
2018-11-03T19:33:46.786Z,100593.12
2018-11-03T19:36:15.292Z,100589.98
2018-11-03T19:38:44.859Z,100580.94
2018-11-03T19:41:13.755Z,100580.59
2018-11-03T19:43:43.636Z,100583.23
2018-11-03T19:46:12.117Z,100574.19
2018-11-03T19:48:40.687Z,100573.25
2018-11-03T19:51:09.236Z,100574.75
2018-11-03T19:53:37.944Z,100571.13
2018-11-03T19:56:06.388Z,100574.77
2018-11-03T19:58:35.189Z,100565.88
2018-11-03T20:01:03.924Z,100566.73
2018-11-03T20:03:33.215Z,100565.88
2018-11-03T20:06:01.809Z,100570.52
2018-11-03T20:08:30.387Z,100573.16
2018-11-03T20:10:58.827Z,100569.70
2018-11-03T20:13:27.356Z,100565.44
2018-11-03T20:15:56.048Z,100562.30
2018-11-03T20:18:24.651Z,100560.98
2018-11-03T20:20:53.328Z,100557.84
2018-11-03T20:23:21.785Z,100557.84
2018-11-03T20:25:50.869Z,100556.34
2018-11-03T20:28:19.602Z,100551.39
2018-11-03T20:30:48.208Z,100555.70
2018-11-03T20:33:17.933Z,100541.70
2018-11-03T20:35:46.413Z,100540.20
2018-11-03T20:38:15.118Z,100539.20
2018-11-03T20:40:44.315Z,100539.83
2018-11-03T20:43:12.822Z,100540.33
2018-11-03T20:45:41.440Z,100534.75
2018-11-03T20:48:09.887Z,100530.61
2018-11-03T20:50:38.653Z,100522.89
2018-11-03T20:53:07.317Z,100532.93
2018-11-03T20:55:35.770Z,100522.58
2018-11-03T20:58:04.427Z,100514.86
2018-11-03T21:00:33.044Z,100521.26
2018-11-03T21:03:01.513Z,100519.95
2018-11-03T21:05:31.357Z,100518.63
2018-11-03T21:07:59.833Z,100512.86
2018-11-03T21:10:28.337Z,100510.53
2018-11-03T21:12:56.766Z,100509.53
2018-11-03T21:15:25.428Z,100515.80
2018-11-03T21:17:53.847Z,100511.85
2018-11-03T21:20:22.293Z,100514.80
2018-11-03T21:22:50.761Z,100511.04
2018-11-03T21:25:19.228Z,100514.48
2018-11-03T21:27:47.648Z,100509.72
2018-11-03T21:30:16.228Z,100504.95
2018-11-03T21:32:44.687Z,100502.81
2018-11-03T21:35:13.074Z,100503.95
2018-11-03T21:37:41.510Z,100508.41
2018-11-03T21:40:10.034Z,100499.37
2018-11-03T21:42:38.497Z,100500.38
2018-11-03T21:45:07.543Z,100497.05
2018-11-03T21:47:36.133Z,100502.31
2018-11-03T21:50:05.240Z,100502.81
2018-11-03T21:52:33.723Z,100502.50
2018-11-03T21:55:02.196Z,100499.05
2018-11-03T21:57:31.853Z,100496.42
2018-11-03T22:00:00.410Z,100499.68
2018-11-03T22:02:28.924Z,100489.48
2018-11-03T22:04:57.371Z,100489.33
2018-11-03T22:07:25.863Z,100486.70
2018-11-03T22:09:54.271Z,100481.93
2018-11-03T22:12:22.675Z,100475.66
2018-11-03T22:14:51.115Z,100473.34
2018-11-03T22:17:19.540Z,100473.02
2018-11-03T22:19:48.303Z,100472.86
2018-11-03T22:22:16.723Z,100465.52
2018-11-03T22:24:45.143Z,100471.13
2018-11-03T22:27:14.411Z,100468.87
2018-11-03T22:29:42.795Z,100465.10
2018-11-03T22:32:11.258Z,100467.39
2018-11-03T22:34:39.682Z,100469.20
2018-11-03T22:37:08.124Z,100465.92
2018-11-03T22:39:36.879Z,100461.97
2018-11-03T22:42:05.755Z,100463.59
2018-11-03T22:44:34.126Z,100454.38
2018-11-03T22:47:02.630Z,100467.86
2018-11-03T22:49:32.096Z,100474.14
2018-11-03T22:52:04.338Z,100464.63
2018-11-03T22:54:32.998Z,100467.29
2018-11-03T22:57:01.552Z,100458.75
2018-11-03T22:59:30.014Z,100459.76
2018-11-03T23:01:58.473Z,100462.08
2018-11-03T23:04:26.931Z,100456.33
2018-11-03T23:06:55.538Z,100461.80
2018-11-03T23:09:24.024Z,100456.09
2018-11-03T23:11:52.466Z,100456.12
2018-11-03T23:14:20.863Z,100458.14
2018-11-03T23:16:49.563Z,100455.38
2018-11-03T23:19:17.994Z,100454.74
2018-11-03T23:21:46.398Z,100449.31
2018-11-03T23:24:14.835Z,100443.28
2018-11-03T23:26:43.215Z,100446.25
2018-11-03T23:29:11.709Z,100445.45
2018-11-03T23:31:40.461Z,100439.08
2018-11-03T23:34:08.911Z,100440.09
2018-11-03T23:36:37.396Z,100443.41
2018-11-03T23:39:08.818Z,100428.31
2018-11-03T23:41:37.580Z,100424.20
2018-11-03T23:44:06.158Z,100427.02
2018-11-03T23:46:34.756Z,100427.88
2018-11-03T23:49:03.406Z,100418.19
2018-11-03T23:51:33.242Z,100420.50
2018-11-03T23:54:01.705Z,100410.66
2018-11-03T23:56:30.553Z,100415.92
2018-11-03T23:58:58.995Z,100412.97
